Time;durP1;ratioP1;P1;durP2;ratioP2;P2;SDS_P1;SDS_P2;PMS_P1;PMS_P2;Temp;Humidity;BMP_temperature;BMP_pressure;BME280_temperature;BME280_humidity;BME280_pressure;Samples;Min_cycle;Max_cycle;Signal;HPM_P1;HPM_P2
2022/01/15 00:00:27;;;;;;;15.73;8.93;;;;;;;-0.57;82.59;93520.66;5111286;28;20038;-54
2022/01/15 00:02:53;;;;;;;19.13;8.85;;;;;;;-0.56;82.83;93525.59;5111202;28;20027;-56
2022/01/15 00:05:19;;;;;;;15.90;7.50;;;;;;;-0.46;82.42;93534.34;5111534;28;20054;-56
2022/01/15 00:07:47;;;;;;;13.07;8.35;;;;;;;-0.61;82.16;93518.16;5111179;28;20474;-58
2022/01/15 00:10:15;;;;;;;15.60;11.27;;;;;;;-0.66;82.19;93501.81;5111098;28;20107;-56
2022/01/15 00:12:40;;;;;;;13.07;7.80;;;;;;;-0.53;83.07;93521.94;5108187;28;20500;-56
2022/01/15 00:15:15;;;;;;;12.70;7.95;;;;;;;-0.48;83.17;93526.69;5109332;28;20030;-58
2022/01/15 00:17:48;;;;;;;15.05;7.75;;;;;;;-0.52;83.25;93523.41;5109656;28;20136;-58
2022/01/15 00:20:16;;;;;;;14.50;7.65;;;;;;;-0.30;83.02;93515.53;5110264;28;20397;-58
2022/01/15 00:22:43;;;;;;;14.87;7.63;;;;;;;-0.26;82.76;93524.19;5110403;28;20401;-59
2022/01/15 00:25:09;;;;;;;15.77;10.80;;;;;;;-0.21;83.01;93522.78;5110103;28;20020;-51
2022/01/15 00:27:35;;;;;;;17.45;8.70;;;;;;;-0.17;82.48;93526.78;5110102;28;20045;-52
2022/01/15 00:30:02;;;;;;;14.45;8.38;;;;;;;-0.30;82.47;93536.47;5109875;28;20031;-54
2022/01/15 00:32:28;;;;;;;14.05;7.47;;;;;;;-0.24;83.09;93537.31;5109127;28;20094;-52
2022/01/15 00:34:53;;;;;;;14.05;8.35;;;;;;;-0.18;82.56;93532.69;5111079;28;20130;-57
2022/01/15 00:37:19;;;;;;;19.55;12.23;;;;;;;-0.17;83.04;93551.19;5111376;28;20027;-58
2022/01/15 00:39:44;;;;;;;18.02;11.38;;;;;;;-0.19;82.43;93550.16;5113169;28;20493;-55
2022/01/15 00:42:10;;;;;;;10.02;7.18;;;;;;;-0.38;82.82;93560.56;5115301;28;20125;-56
2022/01/15 00:44:37;;;;;;;15.98;7.70;;;;;;;-0.39;82.99;93558.34;5112842;27;20758;-56
2022/01/15 00:47:03;;;;;;;18.67;9.50;;;;;;;-0.36;83.29;93549.25;5113230;28;20081;-57
2022/01/15 00:49:29;;;;;;;23.88;14.23;;;;;;;-0.39;83.26;93566.47;5114820;28;20516;-57
2022/01/15 00:51:54;;;;;;;16.13;9.82;;;;;;;-0.38;83.02;93557.84;5114833;28;20124;-57
2022/01/15 00:54:20;;;;;;;17.63;10.98;;;;;;;-0.34;82.33;93550.25;5114079;28;20412;-56
2022/01/15 00:56:45;;;;;;;16.70;8.82;;;;;;;-0.43;82.80;93541.50;5114643;28;20024;-58
2022/01/15 00:59:10;;;;;;;22.40;10.15;;;;;;;-0.36;82.85;93549.25;5114194;28;20500;-58
2022/01/15 01:01:36;;;;;;;17.92;10.70;;;;;;;-0.37;83.17;93537.63;5114526;28;20051;-58
2022/01/15 01:04:02;;;;;;;13.43;8.63;;;;;;;-0.41;82.52;93528.97;5114182;28;20114;-58
2022/01/15 01:06:27;;;;;;;17.60;9.40;;;;;;;-0.58;82.57;93536.16;5114183;28;20051;-58
2022/01/15 01:08:53;;;;;;;14.80;8.48;;;;;;;-0.67;82.16;93533.59;5111266;28;20020;-58
2022/01/15 01:11:29;;;;;;;14.95;8.82;;;;;;;-0.73;83.33;93538.19;5114076;28;20023;-56
2022/01/15 01:24:49;;;;;;;14.93;7.32;;;;;;;-0.94;83.82;93540.16;5103582;28;20066;-58
2022/01/15 01:27:29;;;;;;;13.27;8.60;;;;;;;-0.97;83.90;93541.09;5113700;27;20099;-58
2022/01/15 01:35:08;;;;;;;14.93;8.35;;;;;;;-0.98;82.70;93539.63;5093701;28;20028;-57
2022/01/15 01:37:39;;;;;;;12.00;7.50;;;;;;;-0.87;82.34;93520.03;5094020;28;20452;-56
2022/01/15 01:40:17;;;;;;;15.15;9.25;;;;;;;-1.25;83.25;93526.41;5093650;28;20043;-57
2022/01/15 01:42:52;;;;;;;14.35;7.93;;;;;;;-1.14;83.34;93515.75;5093545;28;20059;-57
2022/01/15 01:45:18;;;;;;;11.13;7.18;;;;;;;-1.08;82.76;93521.22;5093822;28;20107;-57
2022/01/15 01:47:44;;;;;;;10.80;6.50;;;;;;;-1.14;82.34;93523.88;5093409;28;20552;-55
2022/01/15 01:50:29;;;;;;;11.48;7.32;;;;;;;-1.18;82.38;93525.28;5093468;28;20031;-57
2022/01/15 01:52:57;;;;;;;12.05;6.40;;;;;;;-1.21;81.82;93513.41;5092689;28;20089;-57
2022/01/15 01:55:24;;;;;;;12.65;7.35;;;;;;;-1.21;81.62;93515.41;5093246;28;20028;-55
2022/01/15 01:57:52;;;;;;;11.63;7.00;;;;;;;-1.35;81.31;93483.66;5093542;28;20024;-56
2022/01/15 02:00:20;;;;;;;14.73;7.70;;;;;;;-1.43;81.09;93501.53;5093486;28;20397;-57
2022/01/15 02:02:50;;;;;;;23.52;11.13;;;;;;;-1.49;81.24;93512.25;5093195;28;20020;-57
2022/01/15 02:05:15;;;;;;;23.20;11.60;;;;;;;-1.58;81.50;93515.06;5104738;28;20032;-52
2022/01/15 02:07:43;;;;;;;24.55;12.20;;;;;;;-1.79;81.50;93498.03;5113883;28;20112;-60
2022/01/15 02:10:10;;;;;;;24.80;11.57;;;;;;;-1.79;81.69;93500.75;5113611;28;20027;-59
2022/01/15 02:12:36;;;;;;;19.95;11.65;;;;;;;-1.97;82.74;93513.72;5113637;28;20024;-59
2022/01/15 02:15:21;;;;;;;22.38;12.98;;;;;;;-1.86;82.39;93519.31;5112874;28;20027;-59
2022/01/15 02:17:48;;;;;;;29.55;15.20;;;;;;;-1.94;81.74;93529.75;5113069;28;20040;-59
2022/01/15 02:25:46;;;;;;;54.42;25.73;;;;;;;-2.40;83.05;93528.69;5113395;28;20062;-57
2022/01/15 02:28:12;;;;;;;22.40;14.33;;;;;;;-2.23;83.82;93523.59;5113055;28;20026;-58
2022/01/15 02:30:39;;;;;;;20.45;12.00;;;;;;;-2.16;85.46;93521.25;5112777;28;20015;-58
2022/01/15 02:33:05;;;;;;;31.73;18.65;;;;;;;-2.21;85.43;93534.69;5112892;28;20024;-57
2022/01/15 02:35:31;;;;;;;32.83;17.70;;;;;;;-2.21;84.96;93530.03;5112832;28;20030;-57
2022/01/15 02:38:04;;;;;;;30.35;17.40;;;;;;;-2.17;84.73;93525.19;5113081;28;20095;-57
2022/01/15 02:40:33;;;;;;;34.15;18.05;;;;;;;-2.09;84.88;93533.69;5112837;28;20012;-57
2022/01/15 02:43:04;;;;;;;50.75;26.88;;;;;;;-1.96;84.35;93534.91;5113052;28;20027;-56
2022/01/15 02:45:32;;;;;;;52.00;28.63;;;;;;;-1.95;84.31;93533.66;5112761;28;20085;-57
2022/01/15 02:48:09;;;;;;;44.42;24.25;;;;;;;-1.76;83.58;93535.00;5112616;28;20019;-58
2022/01/15 02:50:34;;;;;;;45.28;23.63;;;;;;;-1.73;83.43;93525.19;5111289;28;20024;-59
2022/01/15 02:53:01;;;;;;;46.97;22.65;;;;;;;-1.63;83.30;93527.34;5112551;28;20030;-59
2022/01/15 02:55:27;;;;;;;41.13;22.30;;;;;;;-1.85;83.57;93529.69;5112828;28;20113;-59
2022/01/15 02:57:52;;;;;;;41.85;22.63;;;;;;;-1.82;84.09;93531.44;5112469;28;20059;-59
2022/01/15 03:00:18;;;;;;;35.17;19.90;;;;;;;-1.82;84.15;93530.72;5109391;28;20026;-59
2022/01/15 03:02:44;;;;;;;34.20;18.48;;;;;;;-1.75;85.10;93522.19;5091557;28;20479;-55
2022/01/15 03:05:09;;;;;;;39.05;22.05;;;;;;;-1.59;85.22;93522.47;5091801;28;20024;-55
2022/01/15 03:07:36;;;;;;;33.22;18.25;;;;;;;-1.44;84.32;93540.66;5091930;28;20082;-61
2022/01/15 03:10:03;;;;;;;29.08;16.92;;;;;;;-1.25;83.78;93539.97;5091774;28;20532;-59
2022/01/15 03:12:29;;;;;;;27.92;16.65;;;;;;;-1.38;84.61;93534.09;5091851;28;20076;-59
2022/01/15 03:14:59;;;;;;;27.55;16.08;;;;;;;-1.31;84.92;93546.50;5091783;28;20024;-60
2022/01/15 03:17:25;;;;;;;23.50;13.73;;;;;;;-1.27;84.25;93547.06;5091637;28;20576;-60
2022/01/15 03:19:50;;;;;;;30.73;14.40;;;;;;;-1.15;83.97;93543.31;5092040;28;20107;-60
2022/01/15 03:22:16;;;;;;;23.35;13.68;;;;;;;-1.24;84.31;93540.72;5092071;28;20097;-60
2022/01/15 03:24:41;;;;;;;22.45;13.80;;;;;;;-1.21;84.34;93554.03;5091713;28;20382;-61
2022/01/15 03:27:07;;;;;;;14.93;9.90;;;;;;;-1.32;85.49;93540.34;5091941;28;20103;-61
2022/01/15 03:29:33;;;;;;;26.80;11.23;;;;;;;-1.03;85.39;93564.66;5091925;28;20031;-61
2022/01/15 03:31:58;;;;;;;21.08;11.23;;;;;;;-1.00;85.79;93571.09;5091566;28;20016;-61
2022/01/15 03:34:24;;;;;;;21.15;9.85;;;;;;;-0.89;85.62;93566.56;5090517;28;20028;-61
2022/01/15 03:36:49;;;;;;;14.70;8.88;;;;;;;-0.77;84.98;93553.91;5091612;28;20020;-56
2022/01/15 03:39:15;;;;;;;21.05;11.07;;;;;;;-0.79;85.49;93559.81;5091803;28;20053;-56
2022/01/15 03:41:40;;;;;;;31.40;15.18;;;;;;;-0.85;85.54;93558.25;5091527;28;20077;-55
2022/01/15 03:44:06;;;;;;;22.55;10.80;;;;;;;-0.72;85.75;93566.81;5091467;28;20027;-54
2022/01/15 03:46:31;;;;;;;15.10;7.88;;;;;;;-0.66;85.68;93567.63;5091788;28;20016;-53
2022/01/15 03:48:57;;;;;;;29.00;15.13;;;;;;;-0.68;85.96;93555.75;5091428;28;20493;-56
2022/01/15 03:51:22;;;;;;;16.35;10.27;;;;;;;-0.48;86.13;93572.03;5091417;28;20069;-53
2022/01/15 03:53:48;;;;;;;15.88;9.50;;;;;;;-0.40;86.28;93568.44;5091751;28;20024;-53
2022/01/15 03:56:13;;;;;;;32.55;14.25;;;;;;;-0.35;85.30;93559.63;5091444;28;20020;-55
2022/01/15 03:58:39;;;;;;;22.90;11.18;;;;;;;-0.23;85.42;93577.50;5111773;28;20068;-50
2022/01/15 04:01:04;;;;;;;18.35;9.52;;;;;;;-0.17;84.75;93575.59;5111891;28;20012;-49
2022/01/15 04:03:30;;;;;;;16.88;10.40;;;;;;;-0.04;84.76;93572.53;5112257;28;20073;-50
2022/01/15 04:05:55;;;;;;;31.20;17.98;;;;;;;-0.17;84.79;93588.41;5111752;28;20050;-55
2022/01/15 04:08:21;;;;;;;26.02;12.43;;;;;;;-0.14;84.70;93580.09;5111866;28;20027;-55
2022/01/15 04:10:46;;;;;;;24.52;10.90;;;;;;;-0.09;85.48;93589.53;5111591;28;20472;-53
2022/01/15 04:13:15;;;;;;;17.52;9.25;;;;;;;0.09;86.04;93589.19;5111515;28;20053;-54
2022/01/15 04:15:44;;;;;;;18.17;9.55;;;;;;;0.22;85.78;93584.16;5114165;28;20237;-56
2022/01/15 04:18:10;;;;;;;16.23;9.90;;;;;;;0.30;86.27;93595.34;5114325;28;20043;-56
2022/01/15 04:20:35;;;;;;;12.45;7.28;;;;;;;0.34;85.52;93579.59;5115525;28;20378;-57
2022/01/15 04:23:01;;;;;;;13.93;8.05;;;;;;;0.68;84.90;93600.38;5115734;28;20030;-56
2022/01/15 04:25:26;;;;;;;24.80;11.93;;;;;;;0.73;84.04;93602.41;5115416;28;20027;-56
2022/01/15 04:27:56;;;;;;;20.15;10.68;;;;;;;0.75;84.36;93622.44;5115366;28;20102;-58
2022/01/15 04:30:23;;;;;;;13.98;8.52;;;;;;;0.57;83.21;93622.78;5115187;28;20568;-58
2022/01/15 04:32:49;;;;;;;15.00;10.10;;;;;;;0.53;84.11;93624.97;5115325;28;20020;-57
2022/01/15 04:35:14;;;;;;;13.07;7.85;;;;;;;0.68;84.66;93628.31;5114634;28;20457;-56
2022/01/15 04:37:47;;;;;;;96.85;33.78;;;;;;;0.73;85.31;93624.91;5115304;28;20019;-57
2022/01/15 04:40:14;;;;;;;18.95;10.93;;;;;;;0.84;84.90;93634.38;5115166;28;20011;-57
2022/01/15 04:42:41;;;;;;;25.55;16.63;;;;;;;1.06;84.87;93629.13;5115171;28;20023;-56
2022/01/15 04:45:07;;;;;;;21.20;11.90;;;;;;;1.16;84.84;93631.16;5115019;28;20405;-58
2022/01/15 04:47:36;;;;;;;15.85;9.38;;;;;;;1.21;84.52;93632.44;5114988;28;20020;-59
2022/01/15 04:50:03;;;;;;;14.55;8.98;;;;;;;1.26;84.34;93629.75;5114901;28;20401;-59
2022/01/15 04:52:30;;;;;;;16.92;8.90;;;;;;;1.33;83.95;93632.03;5115096;28;20505;-59
2022/01/15 04:54:56;;;;;;;21.38;12.20;;;;;;;1.37;83.71;93637.22;5114858;28;20105;-53
2022/01/15 04:57:21;;;;;;;11.27;7.85;;;;;;;1.40;83.77;93645.19;5114294;28;20031;-56
2022/01/15 04:59:46;;;;;;;15.43;8.70;;;;;;;1.44;83.89;93639.50;5113642;28;20165;-56
2022/01/15 05:02:12;;;;;;;18.25;8.90;;;;;;;1.45;83.66;93641.72;5114674;28;20051;-55
2022/01/15 05:04:38;;;;;;;27.48;15.57;;;;;;;1.57;82.71;93644.53;5114690;28;20047;-55
2022/01/15 05:07:03;;;;;;;21.65;11.00;;;;;;;1.60;82.27;93641.59;5114852;28;20020;-56
2022/01/15 05:09:29;;;;;;;23.77;12.20;;;;;;;1.59;82.57;93648.25;5114879;28;20480;-56
2022/01/15 05:12:09;;;;;;;25.08;12.15;;;;;;;1.56;82.51;93641.06;5114397;27;20111;-52
2022/01/15 05:14:35;;;;;;;34.97;17.80;;;;;;;1.65;81.83;93642.84;5103130;28;20020;-50
2022/01/15 05:17:02;;;;;;;29.48;12.45;;;;;;;1.66;81.80;93649.78;5114215;28;20484;-57
2022/01/15 05:19:28;;;;;;;27.65;14.15;;;;;;;1.70;80.95;93653.78;5114178;28;20031;-58
2022/01/15 05:21:56;;;;;;;24.27;13.15;;;;;;;1.58;81.12;93635.91;5113952;28;20020;-56
2022/01/15 05:24:22;;;;;;;21.75;11.95;;;;;;;1.60;81.17;93647.03;5113347;28;20039;-57
2022/01/15 05:26:47;;;;;;;16.10;7.75;;;;;;;1.69;81.32;93659.69;5112652;27;20024;-57
2022/01/15 05:29:13;;;;;;;23.77;11.75;;;;;;;1.71;81.44;93663.41;5114164;28;20039;-57
2022/01/15 05:31:38;;;;;;;20.05;10.93;;;;;;;1.74;81.40;93667.13;5113872;28;20023;-58
2022/01/15 05:34:04;;;;;;;15.20;8.30;;;;;;;1.64;80.76;93657.69;5114375;28;20061;-59
2022/01/15 05:36:30;;;;;;;17.88;10.18;;;;;;;1.73;80.93;93676.53;5114389;28;20046;-58
2022/01/15 05:38:56;;;;;;;19.15;9.43;;;;;;;1.82;80.35;93677.09;5112701;28;20019;-58
2022/01/15 05:41:21;;;;;;;19.83;8.90;;;;;;;1.83;80.02;93686.00;5113403;28;20092;-59
2022/01/15 05:43:47;;;;;;;16.02;8.50;;;;;;;1.85;79.77;93691.69;5113409;28;20560;-59
2022/01/15 05:46:12;;;;;;;16.48;8.68;;;;;;;1.77;79.92;93701.56;5113290;28;20027;-59
2022/01/15 05:48:38;;;;;;;15.02;7.53;;;;;;;1.85;79.67;93697.16;5112942;28;20024;-60
2022/01/15 05:51:03;;;;;;;11.80;6.75;;;;;;;1.79;80.12;93704.53;5108141;28;20020;-60
2022/01/15 05:53:29;;;;;;;15.10;7.32;;;;;;;1.79;79.69;93707.25;5113521;28;20160;-60
2022/01/15 05:55:54;;;;;;;15.85;9.23;;;;;;;1.79;79.77;93707.25;5113418;28;20409;-60
2022/01/15 05:58:20;;;;;;;16.65;9.32;;;;;;;1.74;79.46;93714.16;5113424;28;20484;-61
2022/01/15 06:00:45;;;;;;;18.58;10.45;;;;;;;1.75;79.20;93723.06;5112986;28;20019;-61
2022/01/15 06:03:11;;;;;;;18.55;10.18;;;;;;;1.76;79.62;93713.66;5113255;28;20027;-61
2022/01/15 06:05:36;;;;;;;18.90;10.70;;;;;;;1.76;79.72;93711.69;5113159;28;20084;-61
2022/01/15 06:08:02;;;;;;;16.75;9.43;;;;;;;1.69;80.02;93708.69;5113049;28;20015;-61
2022/01/15 06:10:28;;;;;;;19.98;9.95;;;;;;;1.73;79.45;93715.41;5113683;28;20046;-61
2022/01/15 06:12:54;;;;;;;15.75;9.43;;;;;;;1.67;79.58;93717.31;5113568;28;20024;-61
2022/01/15 06:15:19;;;;;;;16.05;9.60;;;;;;;1.64;79.58;93723.75;5113239;28;20019;-61
2022/01/15 06:17:45;;;;;;;13.10;7.90;;;;;;;1.69;79.82;93733.91;5112902;28;20420;-61
2022/01/15 06:20:12;;;;;;;12.95;8.25;;;;;;;1.61;79.71;93732.13;5112106;28;20030;-61
2022/01/15 06:22:37;;;;;;;13.98;8.38;;;;;;;1.67;80.26;93728.22;5113160;28;20027;-61
2022/01/15 06:25:04;;;;;;;12.95;8.05;;;;;;;1.69;79.64;93744.78;5113105;28;20045;-62
2022/01/15 06:27:31;;;;;;;12.15;7.85;;;;;;;1.79;78.79;93742.66;5113034;28;20023;-61
2022/01/15 06:29:57;;;;;;;22.35;11.82;;;;;;;1.75;79.44;93756.50;5113219;28;20051;-61
2022/01/15 06:32:24;;;;;;;18.83;10.45;;;;;;;1.79;79.05;93751.56;5112575;28;20080;-61
2022/01/15 06:34:49;;;;;;;15.23;8.23;;;;;;;1.81;78.89;93754.56;5111943;28;20484;-61
2022/01/15 06:37:15;;;;;;;20.90;11.55;;;;;;;1.74;79.25;93770.56;5111367;28;20019;-61
2022/01/15 06:39:40;;;;;;;24.92;12.27;;;;;;;1.79;78.72;93765.19;5111902;28;20114;-61
2022/01/15 06:42:06;;;;;;;26.95;13.23;;;;;;;1.77;78.78;93769.59;5111825;28;20123;-62
2022/01/15 06:44:31;;;;;;;19.63;11.65;;;;;;;1.79;78.59;93772.59;5111175;28;20511;-61
2022/01/15 06:46:57;;;;;;;40.47;18.60;;;;;;;1.76;79.18;93773.53;5094522;28;20031;-61
2022/01/15 06:49:23;;;;;;;31.13;15.45;;;;;;;1.73;78.70;93774.53;5103372;28;20027;-60
2022/01/15 06:51:48;;;;;;;29.63;15.40;;;;;;;1.74;78.56;93779.47;5110565;28;20107;-59
2022/01/15 06:54:14;;;;;;;25.83;13.20;;;;;;;1.83;78.51;93781.28;5111390;28;20404;-50
2022/01/15 06:56:39;;;;;;;31.60;14.75;;;;;;;1.73;78.52;93763.66;5111139;28;20024;-57
2022/01/15 06:59:05;;;;;;;20.83;10.65;;;;;;;1.81;78.31;93787.22;5110380;28;20019;-57
2022/01/15 07:01:30;;;;;;;17.45;10.35;;;;;;;1.70;78.67;93775.50;5110747;28;20067;-55
2022/01/15 07:03:56;;;;;;;16.48;10.70;;;;;;;1.88;78.74;93794.19;5111444;28;20015;-58
2022/01/15 07:06:21;;;;;;;16.08;9.60;;;;;;;1.83;78.08;93801.09;5110829;28;20027;-59
2022/01/15 07:08:47;;;;;;;23.25;12.68;;;;;;;1.82;78.30;93799.59;5110841;28;20102;-58
2022/01/15 07:11:12;;;;;;;20.90;12.23;;;;;;;1.80;78.84;93818.38;5110950;28;20072;-59
2022/01/15 07:13:38;;;;;;;17.33;10.57;;;;;;;1.86;77.81;93805.56;5111274;28;20436;-52
2022/01/15 07:16:03;;;;;;;21.77;12.70;;;;;;;1.85;77.96;93811.47;5096994;28;20020;-60
2022/01/15 07:18:29;;;;;;;21.83;12.10;;;;;;;1.74;78.16;93795.81;5086074;28;20101;-61
2022/01/15 07:20:55;;;;;;;20.13;12.43;;;;;;;1.86;78.33;93810.28;5086326;28;20035;-61
2022/01/15 07:23:21;;;;;;;21.75;12.50;;;;;;;1.92;77.47;93811.03;5086792;28;20073;-59
2022/01/15 07:25:46;;;;;;;22.10;14.05;;;;;;;1.97;77.56;93826.69;5086322;28;20031;-59
2022/01/15 07:28:12;;;;;;;16.00;10.40;;;;;;;1.97;77.39;93816.53;5086569;28;20023;-59
2022/01/15 07:30:38;;;;;;;14.68;8.65;;;;;;;1.97;77.52;93819.25;5086889;28;20497;-59
2022/01/15 07:33:03;;;;;;;13.32;8.48;;;;;;;2.03;77.27;93830.94;5088283;28;20425;-59
2022/01/15 07:35:29;;;;;;;15.77;9.60;;;;;;;2.03;77.19;93825.50;5088007;28;20480;-55
2022/01/15 07:37:55;;;;;;;16.35;9.77;;;;;;;2.01;77.19;93829.94;5088056;28;20023;-56
2022/01/15 07:40:21;;;;;;;25.52;15.57;;;;;;;2.04;76.27;93837.13;5086594;28;20024;-54
2022/01/15 07:42:46;;;;;;;15.40;9.88;;;;;;;2.03;75.94;93841.09;5100905;28;20039;-53
2022/01/15 07:45:14;;;;;;;13.15;9.05;;;;;;;1.94;75.98;93824.94;5108360;28;20080;-57
2022/01/15 07:47:40;;;;;;;11.15;8.07;;;;;;;2.05;75.61;93849.50;5108433;28;20051;-53
2022/01/15 07:50:09;;;;;;;18.67;9.60;;;;;;;2.09;76.38;93850.03;5110291;28;20134;-54
2022/01/15 07:52:35;;;;;;;15.75;10.80;;;;;;;1.99;76.55;93854.91;5110186;28;20023;-53
2022/01/15 07:55:01;;;;;;;13.40;9.05;;;;;;;1.94;76.04;93846.69;5109331;28;20131;-54
2022/01/15 07:57:27;;;;;;;19.30;8.35;;;;;;;2.01;75.95;93870.78;5109616;27;20052;-56
2022/01/15 07:59:53;;;;;;;20.65;10.88;;;;;;;1.95;76.48;93880.88;5109289;28;20011;-52
2022/01/15 08:02:18;;;;;;;14.27;9.23;;;;;;;1.84;76.18;93872.63;5108360;28;20043;-54
2022/01/15 08:04:44;;;;;;;17.42;10.38;;;;;;;1.92;76.09;93890.75;5108415;28;20098;-55
2022/01/15 08:07:10;;;;;;;18.40;10.70;;;;;;;1.94;75.80;93882.84;5108454;28;20069;-53
2022/01/15 08:09:36;;;;;;;21.48;11.48;;;;;;;1.95;75.85;93897.94;5106428;28;20448;-56
2022/01/15 08:12:03;;;;;;;14.32;9.45;;;;;;;1.93;76.13;93894.97;5108736;28;20094;-56
2022/01/15 08:14:29;;;;;;;21.30;10.18;;;;;;;1.96;75.94;93904.16;5108824;28;20027;-56
2022/01/15 08:16:54;;;;;;;16.80;11.52;;;;;;;1.96;75.65;93915.03;5110147;28;20027;-57
2022/01/15 08:19:20;;;;;;;17.92;9.82;;;;;;;1.96;75.40;93913.06;5110778;28;20027;-53
2022/01/15 08:21:45;;;;;;;13.48;8.60;;;;;;;1.83;75.46;93923.59;5111000;28;20116;-58
2022/01/15 08:24:11;;;;;;;13.43;9.00;;;;;;;1.76;75.43;93921.28;5109997;28;20023;-55
2022/01/15 08:26:37;;;;;;;17.02;9.75;;;;;;;1.87;75.59;93923.38;5105847;27;20323;-57
2022/01/15 08:29:03;;;;;;;15.02;9.32;;;;;;;1.89;75.67;93929.06;5105945;28;20075;-57
2022/01/15 08:31:28;;;;;;;15.73;9.00;;;;;;;1.92;75.32;93925.41;5108452;28;20026;-53
2022/01/15 08:33:54;;;;;;;16.38;10.00;;;;;;;1.93;75.01;93935.81;5105447;28;20035;-56
2022/01/15 08:36:20;;;;;;;13.80;8.88;;;;;;;1.97;74.73;93938.31;5110642;28;20027;-60
2022/01/15 08:38:46;;;;;;;9.88;7.15;;;;;;;2.01;74.47;93941.59;5107647;28;20033;-58
2022/01/15 08:41:13;;;;;;;13.85;8.52;;;;;;;1.87;74.29;93917.91;5109031;28;20023;-59
2022/01/15 08:43:39;;;;;;;16.73;8.95;;;;;;;2.04;74.17;93946.81;5109419;28;20497;-56
2022/01/15 08:46:05;;;;;;;14.15;8.20;;;;;;;2.01;74.01;93949.75;5111411;28;20073;-60
2022/01/15 08:48:30;;;;;;;11.82;8.38;;;;;;;2.00;74.10;93956.41;5111106;28;20019;-60
2022/01/15 08:50:56;;;;;;;14.32;8.68;;;;;;;1.97;74.26;93941.78;5110578;28;20481;-60
2022/01/15 08:53:21;;;;;;;14.77;9.88;;;;;;;2.03;74.53;93955.47;5110784;28;20475;-59
2022/01/15 08:55:48;;;;;;;12.95;8.95;;;;;;;2.11;73.65;93959.25;5110516;28;20031;-58
2022/01/15 08:58:14;;;;;;;12.25;8.13;;;;;;;2.10;74.06;93955.03;5111158;28;20085;-59
2022/01/15 09:00:40;;;;;;;15.05;8.93;;;;;;;2.15;73.35;93948.88;5106906;28;20020;-54
2022/01/15 09:03:07;;;;;;;15.38;9.00;;;;;;;2.18;72.87;93953.38;5103853;28;20489;-53
2022/01/15 09:05:35;;;;;;;12.32;8.30;;;;;;;2.23;73.11;93961.56;5108381;28;20027;-58
2022/01/15 09:08:03;;;;;;;15.88;10.10;;;;;;;2.22;73.37;93968.28;5109300;28;20027;-51
2022/01/15 09:10:29;;;;;;;13.25;9.20;;;;;;;2.17;72.50;93965.47;5109036;28;20066;-59
2022/01/15 09:12:54;;;;;;;14.63;9.48;;;;;;;2.26;72.74;93973.50;5105887;28;20500;-60
2022/01/15 09:15:21;;;;;;;15.32;9.50;;;;;;;2.12;72.36;93964.19;5108632;28;20958;-60
2022/01/15 09:17:46;;;;;;;15.77;9.40;;;;;;;2.20;72.30;93975.41;5106198;28;20047;-60
2022/01/15 09:20:13;;;;;;;16.48;9.18;;;;;;;2.18;72.67;93969.72;5110768;28;20028;-60
2022/01/15 09:22:39;;;;;;;13.18;8.27;;;;;;;2.32;72.24;93976.28;5108894;28;20595;-60
2022/01/15 09:25:05;;;;;;;18.58;9.75;;;;;;;2.42;72.02;93970.16;5109406;28;20056;-58
2022/01/15 09:30:17;;;;;;;16.67;8.98;;;;;;;2.47;71.12;93977.63;5108875;28;20046;-60
2022/01/15 09:32:51;;;;;;;12.57;9.33;;;;;;;2.56;70.89;93973.97;5109293;28;20044;-60
2022/01/15 09:35:18;;;;;;;12.88;8.73;;;;;;;2.55;70.36;93972.50;5104031;28;20899;-60
2022/01/15 09:37:46;;;;;;;20.98;10.75;;;;;;;2.65;70.64;93977.28;5108540;28;20497;-60
2022/01/15 09:40:12;;;;;;;28.20;15.52;;;;;;;2.71;69.52;93969.88;5108460;28;20081;-60
2022/01/15 09:42:40;;;;;;;17.48;11.13;;;;;;;2.71;69.56;93969.13;5109384;28;20027;-60
2022/01/15 09:45:08;;;;;;;26.10;11.57;;;;;;;2.71;70.07;93969.88;5109404;28;20470;-60
2022/01/15 09:47:34;;;;;;;19.77;12.63;;;;;;;2.87;69.71;93966.53;5109313;28;20031;-61
2022/01/15 09:50:02;;;;;;;15.35;11.27;;;;;;;3.00;69.12;93961.41;5108728;28;20489;-60
2022/01/15 09:52:30;;;;;;;19.42;10.48;;;;;;;3.16;68.54;93967.44;5108594;28;20025;-60
2022/01/15 09:54:56;;;;;;;15.27;9.95;;;;;;;3.17;68.20;93968.91;5108340;28;20388;-61
2022/01/15 09:57:21;;;;;;;16.73;10.55;;;;;;;3.30;67.97;93967.25;5108558;28;20024;-61
2022/01/15 09:59:47;;;;;;;14.05;9.68;;;;;;;3.32;67.54;93969.50;5102835;28;20110;-61
2022/01/15 10:02:13;;;;;;;20.30;11.02;;;;;;;3.31;66.82;93965.28;5107405;28;20104;-61
2022/01/15 10:04:38;;;;;;;20.27;13.05;;;;;;;3.33;66.71;93960.84;5108016;28;20073;-61
2022/01/15 10:07:25;;;;;;;18.67;10.98;;;;;;;3.32;67.31;93961.28;5109241;28;20028;-61
2022/01/15 10:09:51;;;;;;;17.98;11.73;;;;;;;3.51;65.98;93960.38;5106947;28;20024;-61
2022/01/15 10:12:29;;;;;;;14.98;9.85;;;;;;;3.82;65.69;93959.50;5107923;28;20022;-61
2022/01/15 10:15:02;;;;;;;15.63;9.52;;;;;;;4.22;64.85;93956.34;5108463;27;20031;-61
2022/01/15 10:17:32;;;;;;;13.65;9.60;;;;;;;4.34;63.54;93949.66;5107202;28;20066;-61
2022/01/15 10:19:58;;;;;;;;;;;;;;;4.63;62.65;93953.13;5109171;28;20023;-60
2022/01/15 10:22:25;;;;;;;16.10;9.10;;;;;;;4.61;62.48;93956.38;5108741;28;19915;-61
2022/01/15 10:25:15;;;;;;;17.42;9.93;;;;;;;4.58;62.56;93949.16;5109163;28;20020;-61
2022/01/15 10:27:43;;;;;;;15.57;9.07;;;;;;;4.56;62.12;93946.19;5106923;28;20032;-60
2022/01/15 10:30:11;;;;;;;16.40;9.50;;;;;;;4.51;62.50;93938.72;5107453;28;20038;-61
2022/01/15 10:32:39;;;;;;;15.27;11.40;;;;;;;4.67;62.40;93942.69;5106351;28;20030;-61
2022/01/15 10:35:14;;;;;;;15.00;9.02;;;;;;;4.46;61.48;93934.00;5108663;28;20023;-61
2022/01/15 10:37:53;;;;;;;15.60;8.55;;;;;;;4.30;62.27;93954.63;5107770;28;20019;-61
2022/01/15 10:40:20;;;;;;;;;;;;;;;4.17;62.20;93945.41;5104185;28;20023;-61
2022/01/15 10:42:51;;;;;;;12.63;8.30;;;;;;;3.85;63.17;93942.16;5107879;28;19912;-61
2022/01/15 10:45:17;;;;;;;14.15;8.27;;;;;;;3.71;63.76;93940.34;5105622;28;20027;-60
2022/01/15 10:47:47;;;;;;;14.70;8.98;;;;;;;3.75;64.20;93936.16;5108391;28;20016;-60
2022/01/15 10:50:33;;;;;;;15.85;8.40;;;;;;;3.81;64.66;93936.19;5108706;28;20051;-60
2022/01/15 10:53:06;;;;;;;20.55;11.70;;;;;;;3.91;64.36;93934.69;5102752;28;20481;-60
2022/01/15 10:55:33;;;;;;;14.98;10.15;;;;;;;3.95;63.70;93932.47;5108507;28;20449;-60
2022/01/15 10:58:00;;;;;;;21.85;9.77;;;;;;;3.98;63.59;93922.53;5107928;28;20023;-60
2022/01/15 11:00:51;;;;;;;12.90;8.32;;;;;;;4.14;63.13;93936.22;5107448;28;20027;-60
2022/01/15 11:03:18;;;;;;;15.90;8.73;;;;;;;4.28;63.71;93932.50;5105469;28;20023;-49
2022/01/15 11:05:47;;;;;;;13.70;8.88;;;;;;;4.23;63.25;93933.25;5108818;28;20536;-52
2022/01/15 11:08:26;;;;;;;16.30;9.07;;;;;;;4.24;63.48;93926.56;5103892;28;20020;-60
2022/01/15 11:10:55;;;;;;;13.35;9.38;;;;;;;4.40;62.49;93927.78;5107937;28;20020;-59
2022/01/15 11:13:29;;;;;;;14.95;8.90;;;;;;;4.46;62.77;93926.53;5108060;28;20039;-60
2022/01/15 11:15:58;;;;;;;11.93;8.35;;;;;;;4.53;62.31;93917.84;5100978;28;20102;-60
2022/01/15 11:18:29;;;;;;;18.30;9.93;;;;;;;4.56;62.10;93932.50;5108273;28;20039;-60
2022/01/15 11:20:57;;;;;;;17.65;9.38;;;;;;;4.60;62.11;93928.28;5108303;28;20480;-58
2022/01/15 11:23:26;;;;;;;12.60;8.13;;;;;;;4.75;61.76;93919.06;5108126;28;20031;-60
2022/01/15 11:25:53;;;;;;;14.40;9.00;;;;;;;4.92;61.82;93926.00;5110555;28;20042;-60
2022/01/15 11:28:21;;;;;;;12.73;7.65;;;;;;;4.94;61.93;93915.28;5104499;28;20143;-60
2022/01/15 11:30:48;;;;;;;17.52;11.68;;;;;;;5.13;61.59;93910.75;5107481;28;20032;-61
2022/01/15 11:33:19;;;;;;;9.95;7.18;;;;;;;5.17;59.56;93916.00;5107195;28;20027;-61
2022/01/15 11:35:45;;;;;;;12.60;8.43;;;;;;;5.19;59.73;93905.28;5107907;28;20073;-60
2022/01/15 11:38:12;;;;;;;23.42;11.57;;;;;;;4.85;60.12;93912.81;5109501;28;20042;-60
2022/01/15 11:40:40;;;;;;;17.55;10.50;;;;;;;4.96;60.62;93917.53;5108771;28;20028;-60
2022/01/15 11:43:23;;;;;;;18.27;10.23;;;;;;;5.04;60.29;93915.78;5109489;28;20108;-60
2022/01/15 11:45:53;;;;;;;15.07;10.68;;;;;;;4.90;60.25;93917.53;5110304;28;20512;-57
2022/01/15 11:48:23;;;;;;;14.95;10.05;;;;;;;4.49;61.14;93922.81;5110927;28;20027;-57
2022/01/15 11:51:17;;;;;;;15.68;10.80;;;;;;;4.14;62.16;93928.03;5110112;28;20497;-57